地図

経路データ

SID SEASON NUMBER BASIN SUBBASIN NAME ISO_TIME NATURE LAT LON WMO_WIND WMO_PRES WMO_AGENCY TRACK_TYPE DIST2LAND LANDFALL IFLAG USA_AGENCY USA_ATCF_ID USA_LAT USA_LON USA_RECORD USA_STATUS USA_WIND USA_PRES USA_SSHS USA_R34_NE USA_R34_SE USA_R34_SW USA_R34_NW USA_R50_NE USA_R50_SE USA_R50_SW USA_R50_NW USA_R64_NE USA_R64_SE USA_R64_SW USA_R64_NW USA_POCI USA_ROCI USA_RMW USA_EYE TOKYO_LAT TOKYO_LON TOKYO_GRADE TOKYO_WIND TOKYO_PRES TOKYO_R50_DIR TOKYO_R50_LONG TOKYO_R50_SHORT TOKYO_R30_DIR TOKYO_R30_LONG TOKYO_R30_SHORT TOKYO_LAND CMA_LAT CMA_LON CMA_CAT CMA_WIND CMA_PRES HKO_LAT HKO_LON HKO_CAT HKO_WIND HKO_PRES NEWDELHI_LAT NEWDELHI_LON NEWDELHI_GRADE NEWDELHI_WIND NEWDELHI_PRES NEWDELHI_CI NEWDELHI_DP NEWDELHI_POCI REUNION_LAT REUNION_LON REUNION_TYPE REUNION_WIND REUNION_PRES REUNION_TNUM REUNION_CI REUNION_RMW REUNION_R34_NE REUNION_R34_SE REUNION_R34_SW REUNION_R34_NW REUNION_R50_NE REUNION_R50_SE REUNION_R50_SW REUNION_R50_NW REUNION_R64_NE REUNION_R64_SE REUNION_R64_SW REUNION_R64_NW BOM_LAT BOM_LON BOM_TYPE BOM_WIND BOM_PRES BOM_TNUM BOM_CI BOM_RMW BOM_R34_NE BOM_R34_SE BOM_R34_SW BOM_R34_NW BOM_R50_NE BOM_R50_SE BOM_R50_SW BOM_R50_NW BOM_R64_NE BOM_R64_SE BOM_R64_SW BOM_R64_NW BOM_ROCI BOM_POCI BOM_EYE BOM_POS_METHOD BOM_PRES_METHOD NADI_LAT NADI_LON NADI_CAT NADI_WIND NADI_PRES WELLINGTON_LAT WELLINGTON_LON WELLINGTON_WIND WELLINGTON_PRES DS824_LAT DS824_LON DS824_STAGE DS824_WIND DS824_PRES TD9636_LAT TD9636_LON TD9636_STAGE TD9636_WIND TD9636_PRES TD9635_LAT TD9635_LON TD9635_WIND TD9635_PRES TD9635_ROCI NEUMANN_LAT NEUMANN_LON NEUMANN_CLASS NEUMANN_WIND NEUMANN_PRES MLC_LAT MLC_LON MLC_CLASS MLC_WIND MLC_PRES USA_GUST BOM_GUST BOM_GUST_PER REUNION_GUST REUNION_GUST_PER USA_SEAHGT USA_SEARAD_NE USA_SEARAD_SE USA_SEARAD_SW USA_SEARAD_NW STORM_SPEED STORM_DIR
1985244N27124 1985 81 WP MM NOT_NAMED 1985-09-01 00:00:00 TS 26.8000 123.700 main 263 257 __O___________ -1 26.8000 123.700 1 23 1004 9 31
1985244N27124 1985 81 WP MM NOT_NAMED 1985-09-01 03:00:00 TS 27.1776 123.950 main 265 260 __P___________ -1 27.1776 123.950 1 23 1004 9 29
1985244N27124 1985 81 WP MM NOT_NAMED 1985-09-01 06:00:00 TS 27.6000 124.200 main 266 263 __O___________ -1 27.6000 124.200 1 23 1004 10 24
1985244N27124 1985 81 WP MM NOT_NAMED 1985-09-01 09:00:00 TS 28.1175 124.424 main 264 246 __P___________ -1 28.1175 124.424 1 23 1003 12 12
1985244N27124 1985 81 WP MM NOT_NAMED 1985-09-01 12:00:00 TS 28.8000 124.500 main 246 226 __O___________ -1 28.8000 124.500 1 23 1002 16 357
1985244N27124 1985 81 WP MM NOT_NAMED 1985-09-01 15:00:00 TS 29.7051 124.311 main 229 203 __P___________ -1 29.7051 124.311 1 23 1002 20 347
1985244N27124 1985 81 WP MM NOT_NAMED 1985-09-01 18:00:00 TS 30.7000 124.000 main 201 171 __O___________ -1 30.7000 124.000 1 23 1002 19 344
1985244N27124 1985 81 WP MM NOT_NAMED 1985-09-01 21:00:00 TS 31.5327 123.691 main 171 157 __P___________ -1 31.5327 123.691 1 23 1001 19 347
1985244N27124 1985 81 WP MM NOT_NAMED 1985-09-02 00:00:00 TS 32.5000 123.500 main 174 174 __O___________ -1 32.5000 123.500 1 23 1000 23 358
1985244N27124 1985 81 WP MM NOT_NAMED 1985-09-02 03:00:00 TS 33.8326 123.581 main 246 217 __P___________ -1 33.8326 123.581 1 23 1000 28 5
1985244N27124 1985 81 WP MM NOT_NAMED 1985-09-02 06:00:00 TS 35.3000 123.800 main 212 146 __O___________ -1 35.3000 123.800 1 23 1000 29 9
1985244N27124 1985 81 WP MM NOT_NAMED 1985-09-02 09:00:00 TS 36.7096 124.107 main 143 49 __P___________ -1 36.7096 124.107 1 23 1001 27 7
1985244N27124 1985 81 WP MM NOT_NAMED 1985-09-02 12:00:00 TS 38.0000 124.200 main 45 43 __O___________ -1 38.0000 124.200 1 23 1002 23 351
1985244N27124 1985 81 WP MM NOT_NAMED 1985-09-02 15:00:00 TS 39.0166 123.637 main 79 0 __P___________ -1 39.0166 123.637 1 21 1002 22 335
1985244N27124 1985 81 WP MM NOT_NAMED 1985-09-02 18:00:00 ET 40.0000 123.000 main 0 0 __O___________ -1 40.0000 123.000 9 19 1003 23 343
1985244N27124 1985 81 WP MM NOT_NAMED 1985-09-02 21:00:00 ET 41.2106 122.765 main 0 0 __P___________ -1 41.2106 122.765 9 18 1004 25 1
1985244N27124 1985 81 WP MM NOT_NAMED 1985-09-03 00:00:00 ET 42.5000 123.000 main 0 0 __O___________ -1 42.5000 123.000 9 17 1005 27 18
1985244N27124 1985 81 WP MM NOT_NAMED 1985-09-03 03:00:00 ET 43.7759 123.914 main 0 0 __P___________ -1 43.7759 123.914 9 17 1005 29 30
1985244N27124 1985 81 WP MM NOT_NAMED 1985-09-03 06:00:00 ET 45.0000 125.000 main 0 0 __O___________ -1 45.0000 125.000 9 17 1005 26 26
1985244N27124 1985 81 WP MM NOT_NAMED 1985-09-03 09:00:00 ET 46.1505 125.560 main 0 0 __P___________ -1 46.1505 125.560 9 18 1003 23 17
1985244N27124 1985 81 WP MM NOT_NAMED 1985-09-03 12:00:00 ET 47.2000 126.000 main 0 0 __O___________ -1 47.2000 126.000 9 19 1002 23 20
1985244N27124 1985 81 WP MM NOT_NAMED 1985-09-03 15:00:00 ET 48.2659 126.720 main 0 0 __P___________ -1 48.2659 126.720 9 21 1002 20 26
1985244N27124 1985 81 WP MM NOT_NAMED 1985-09-03 18:00:00 ET 49.0000 127.300 main 0 0 __O___________ -1 49.0000 127.300 9 23 1002 9 22
1985244N27124 1985 81 WP MM NOT_NAMED 1985-09-03 21:00:00 ET 49.0953 127.238 main 0 0 __P___________ -1 49.0953 127.238 9 26 1000 0 0
1985244N27124 1985 81 WP MM NOT_NAMED 1985-09-04 00:00:00 ET 49.0000 127.300 main 0 0 __O___________ -1 49.0000 127.300 9 29 999 7 73
1985244N27124 1985 81 WP MM NOT_NAMED 1985-09-04 03:00:00 ET 49.2887 128.205 main 0 0 __P___________ -1 49.2887 128.205 9 26 1000 15 71
1985244N27124 1985 81 WP MM NOT_NAMED 1985-09-04 06:00:00 ET 49.5000 129.500 main 0 0 __O___________ -1 49.5000 129.500 9 23 1002 17 87
1985244N27124 1985 81 WP MM NOT_NAMED 1985-09-04 09:00:00 ET 49.3636 130.784 main 0 0 __P___________ -1 49.3636 130.784 9 21 1002 17 107
1985244N27124 1985 81 WP MM NOT_NAMED 1985-09-04 12:00:00 ET 49.0000 132.000 main 0 __O___________ -1 49.0000 132.000 9 19 1003 17 115

デジタル台風データ・検索

IBTrACS Databaseについて

本データベースは、米国NOAAが公開する1842年以降の世界の熱帯低気圧のベストトラックデータアーカイブInternational Best Track Archive for Climate Stewardship (IBTrACS)を、ウェブで閲覧しやすい形式に変換したものです。

最終更新日:2021-11-26